TimeMST,TemperatureF,Dew PointF,Humidity,Sea Level PressureIn,VisibilityMPH,Wind Direction,Wind SpeedMPH,Gust SpeedMPH,PrecipitationIn,Events,Conditions,WindDirDegrees,DateUTC
12:15 AM,53.6,35.6,51,29.76,10.0,SE,16.1,26.5,N/A,,Partly Cloudy,140,2012-11-30 07:15:00
12:55 AM,53.6,35.6,51,29.74,10.0,SE,16.1,23.0,N/A,,Scattered Clouds,140,2012-11-30 07:55:00
1:15 AM,53.6,35.6,51,29.72,10.0,SE,17.3,25.3,N/A,,Clear,130,2012-11-30 08:15:00
1:35 AM,53.6,35.6,51,29.72,10.0,SE,13.8,23.0,N/A,,Clear,140,2012-11-30 08:35:00
1:55 AM,53.6,35.6,51,29.72,10.0,SE,15.0,23.0,N/A,,Clear,130,2012-11-30 08:55:00
2:15 AM,55.4,35.6,47,29.72,10.0,SE,17.3,25.3,N/A,,Mostly Cloudy,130,2012-11-30 09:15:00
2:35 AM,55.4,35.6,47,29.72,10.0,SE,15.0,23.0,N/A,,Mostly Cloudy,140,2012-11-30 09:35:00
2:55 AM,53.6,35.6,51,29.71,10.0,SE,16.1,24.2,N/A,,Mostly Cloudy,140,2012-11-30 09:55:00
3:15 AM,55.4,35.6,47,29.70,10.0,SE,15.0,23.0,N/A,,Mostly Cloudy,130,2012-11-30 10:15:00
3:35 AM,55.4,35.6,47,29.69,10.0,SE,16.1,21.9,N/A,,Mostly Cloudy,140,2012-11-30 10:35:00
3:55 AM,55.4,35.6,47,29.68,10.0,SE,16.1,24.2,N/A,,Overcast,140,2012-11-30 10:55:00
4:15 AM,55.4,35.6,47,29.67,10.0,SE,18.4,26.5,N/A,,Mostly Cloudy,140,2012-11-30 11:15:00
4:35 AM,55.4,35.6,47,29.68,10.0,SE,15.0,25.3,N/A,,Mostly Cloudy,140,2012-11-30 11:35:00
4:55 AM,55.4,35.6,47,29.70,10.0,SSE,13.8,20.7,N/A,,Overcast,160,2012-11-30 11:55:00
5:15 AM,55.4,35.6,47,29.71,10.0,SW,11.5,-,N/A,,Overcast,220,2012-11-30 12:15:00
5:35 AM,53.6,37.4,54,29.71,10.0,SSE,8.1,-,N/A,,Overcast,160,2012-11-30 12:35:00
5:55 AM,53.6,37.4,54,29.70,10.0,SE,10.4,-,N/A,,Overcast,140,2012-11-30 12:55:00
6:15 AM,53.6,37.4,54,29.69,10.0,SE,12.7,-,N/A,,Overcast,140,2012-11-30 13:15:00
6:35 AM,55.4,35.6,47,29.69,10.0,South,15.0,21.9,N/A,,Overcast,180,2012-11-30 13:35:00
6:55 AM,55.4,35.6,47,29.69,10.0,SSE,12.7,-,N/A,,Overcast,150,2012-11-30 13:55:00
7:15 AM,53.6,37.4,54,29.69,10.0,SE,10.4,18.4,N/A,,Overcast,140,2012-11-30 14:15:00
7:35 AM,55.4,35.6,47,29.68,10.0,SSE,9.2,17.3,N/A,,Overcast,160,2012-11-30 14:35:00
7:55 AM,55.4,35.6,47,29.67,10.0,SE,11.5,-,N/A,,Overcast,140,2012-11-30 14:55:00
8:15 AM,55.4,35.6,47,29.67,10.0,SE,11.5,20.7,N/A,,Overcast,130,2012-11-30 15:15:00
8:35 AM,55.4,37.4,51,29.69,10.0,SE,9.2,-,N/A,,Overcast,140,2012-11-30 15:35:00
8:55 AM,59.0,35.6,42,29.70,9.0,SSW,17.3,26.5,N/A,,Overcast,210,2012-11-30 15:55:00
9:15 AM,57.2,35.6,44,29.70,6.0,SSW,20.7,34.5,N/A,,Overcast,210,2012-11-30 16:15:00
9:35 AM,57.2,37.4,48,29.70,3.0,SSW,17.3,28.8,N/A,,Mostly Cloudy,200,2012-11-30 16:35:00
9:55 AM,57.2,37.4,48,29.69,3.0,South,16.1,31.1,N/A,,Scattered Clouds,190,2012-11-30 16:55:00
10:15 AM,57.2,37.4,48,29.69,3.0,South,16.1,24.2,N/A,,Clear,170,2012-11-30 17:15:00
10:35 AM,57.2,37.4,48,29.70,8.0,SSW,18.4,26.5,N/A,,Clear,200,2012-11-30 17:35:00
10:55 AM,57.2,37.4,48,29.72,8.0,SSW,15.0,24.2,N/A,,Scattered Clouds,200,2012-11-30 17:55:00
11:15 AM,57.2,37.4,48,29.73,7.0,SSW,12.7,17.3,N/A,,Mostly Cloudy,200,2012-11-30 18:15:00
11:35 AM,57.2,37.4,48,29.73,6.0,South,10.4,16.1,N/A,,Overcast,180,2012-11-30 18:35:00
11:55 AM,57.2,37.4,48,29.73,10.0,NNW,4.6,-,N/A,,Overcast,330,2012-11-30 18:55:00
12:15 PM,51.8,44.6,76,29.72,9.0,North,6.9,-,N/A,,Overcast,10,2012-11-30 19:15:00
12:35 PM,50.0,46.4,87,29.72,10.0,NNE,9.2,-,N/A,,Overcast,30,2012-11-30 19:35:00
12:55 PM,51.8,46.4,82,29.72,10.0,NE,8.1,-,N/A,,Overcast,40,2012-11-30 19:55:00
1:15 PM,53.6,46.4,77,29.72,10.0,East,3.5,-,N/A,,Overcast,90,2012-11-30 20:15:00
1:35 PM,53.6,46.4,77,29.72,10.0,Calm,Calm,-,N/A,,Mostly Cloudy,0,2012-11-30 20:35:00
1:55 PM,53.6,46.4,77,29.72,10.0,NE,4.6,-,N/A,,Partly Cloudy,40,2012-11-30 20:55:00
2:15 PM,53.6,46.4,77,29.72,10.0,North,5.8,-,N/A,,Scattered Clouds,10,2012-11-30 21:15:00
2:35 PM,55.4,42.8,63,29.72,10.0,NE,4.6,-,N/A,,Scattered Clouds,40,2012-11-30 21:35:00
2:55 PM,55.4,44.6,67,29.73,10.0,Calm,Calm,-,N/A,,Overcast,0,2012-11-30 21:55:00
3:15 PM,55.4,44.6,67,29.73,10.0,Calm,Calm,-,N/A,,Overcast,0,2012-11-30 22:15:00
3:35 PM,53.6,44.6,72,29.72,10.0,NNE,3.5,-,N/A,,Overcast,30,2012-11-30 22:35:00
3:55 PM,55.4,42.8,63,29.73,9.0,ENE,4.6,-,N/A,,Overcast,60,2012-11-30 22:55:00
4:15 PM,55.4,41.0,58,29.74,10.0,NW,3.5,-,N/A,,Overcast,320,2012-11-30 23:15:00
4:35 PM,55.4,41.0,58,29.74,10.0,West,5.8,-,N/A,,Overcast,280,2012-11-30 23:35:00
4:55 PM,53.6,46.4,77,29.76,6.0,South,4.6,-,N/A,,Overcast,170,2012-11-30 23:55:00
5:15 PM,50.0,48.2,94,29.76,9.0,SE,4.6,-,N/A,,Overcast,140,2012-12-01 00:15:00
5:35 PM,51.8,44.6,76,29.76,10.0,South,4.6,-,N/A,,Overcast,170,2012-12-01 00:35:00
5:55 PM,50.0,46.4,87,29.76,10.0,Calm,Calm,-,N/A,,Overcast,0,2012-12-01 00:55:00
6:15 PM,50.0,46.4,87,29.76,10.0,SSE,6.9,-,N/A,,Overcast,150,2012-12-01 01:15:00
6:35 PM,48.2,46.4,93,29.75,10.0,SSE,8.1,-,N/A,,Overcast,150,2012-12-01 01:35:00
6:55 PM,50.0,44.6,82,29.76,10.0,South,5.8,-,N/A,,Overcast,180,2012-12-01 01:55:00
7:15 PM,50.0,42.8,76,29.76,10.0,ESE,5.8,-,N/A,,Overcast,110,2012-12-01 02:15:00
7:35 PM,50.0,42.8,76,29.77,10.0,ESE,8.1,-,N/A,,Overcast,110,2012-12-01 02:35:00
7:55 PM,50.0,44.6,82,29.78,10.0,East,9.2,-,N/A,,Overcast,100,2012-12-01 02:55:00
8:15 PM,50.0,44.6,82,29.78,10.0,ESE,10.4,-,N/A,,Overcast,120,2012-12-01 03:15:00
8:35 PM,50.0,42.8,76,29.79,10.0,ESE,10.4,-,N/A,,Overcast,120,2012-12-01 03:35:00
8:55 PM,48.2,42.8,82,29.79,10.0,SE,9.2,-,N/A,,Overcast,130,2012-12-01 03:55:00
9:15 PM,48.2,41.0,76,29.80,10.0,SE,10.4,-,N/A,,Overcast,130,2012-12-01 04:15:00
9:35 PM,48.2,44.6,87,29.80,10.0,SE,8.1,-,N/A,,Overcast,130,2012-12-01 04:35:00
9:55 PM,46.4,44.6,93,29.81,10.0,SE,8.1,-,N/A,,Overcast,130,2012-12-01 04:55:00
10:15 PM,46.4,41.0,81,29.81,10.0,SE,12.7,17.3,N/A,,Scattered Clouds,130,2012-12-01 05:15:00
10:35 PM,46.4,41.0,81,29.82,10.0,ESE,13.8,18.4,N/A,,Clear,120,2012-12-01 05:35:00
10:55 PM,46.4,41.0,81,29.82,10.0,SE,11.5,19.6,N/A,,Clear,130,2012-12-01 05:55:00
11:15 PM,46.4,41.0,81,29.82,10.0,SE,12.7,19.6,N/A,,Clear,130,2012-12-01 06:15:00
11:35 PM,46.4,41.0,81,29.82,10.0,SE,11.5,17.3,N/A,,Clear,130,2012-12-01 06:35:00
11:55 PM,46.4,41.0,81,29.82,10.0,SE,13.8,20.7,N/A,,Mostly Cloudy,130,2012-12-01 06:55:00